createdAt,value
2019-02-16T00:01:15.664Z,9.80
2019-02-16T00:03:44.256Z,10.57
2019-02-16T00:06:12.856Z,9.37
2019-02-16T00:08:41.538Z,9.57
2019-02-16T00:11:10.124Z,9.87
2019-02-16T00:13:38.712Z,9.80
2019-02-16T00:16:07.322Z,10.07
2019-02-16T00:18:36.050Z,9.53
2019-02-16T00:21:04.647Z,8.70
2019-02-16T00:23:33.278Z,8.57
2019-02-16T00:26:01.898Z,7.67
2019-02-16T00:28:30.500Z,8.17
2019-02-16T00:30:59.108Z,8.63
2019-02-16T00:33:27.700Z,7.80
2019-02-16T00:35:56.384Z,8.20
2019-02-16T00:38:25.010Z,8.47
2019-02-16T00:40:53.622Z,8.47
2019-02-16T00:43:22.200Z,8.93
2019-02-16T00:45:50.798Z,8.90
2019-02-16T00:48:19.378Z,9.20
2019-02-16T00:50:47.961Z,8.83
2019-02-16T00:53:16.574Z,7.97
2019-02-16T00:55:45.419Z,7.90
2019-02-16T00:58:14.016Z,8.57
2019-02-16T01:00:42.700Z,11.03
2019-02-16T01:03:11.302Z,9.43
2019-02-16T01:05:39.890Z,8.40
2019-02-16T01:08:08.501Z,8.70
2019-02-16T01:10:37.146Z,8.87
2019-02-16T01:13:05.722Z,7.80
2019-02-16T01:15:34.332Z,8.23
2019-02-16T01:18:02.923Z,7.90
2019-02-16T01:20:31.620Z,8.83
2019-02-16T01:23:00.226Z,9.23
2019-02-16T01:25:28.836Z,10.10
2019-02-16T01:27:57.438Z,7.93
2019-02-16T01:30:26.029Z,8.97
2019-02-16T01:32:54.874Z,7.70
2019-02-16T01:35:23.498Z,10.87
2019-02-16T01:37:52.094Z,8.67
2019-02-16T01:40:20.680Z,9.87
2019-02-16T01:42:49.284Z,8.90
2019-02-16T01:45:18.032Z,9.57
2019-02-16T01:47:46.626Z,10.87
2019-02-16T01:50:15.244Z,11.00
2019-02-16T01:52:43.915Z,10.10
2019-02-16T01:55:12.501Z,9.30
2019-02-16T01:57:41.156Z,10.07
2019-02-16T02:00:10.575Z,9.37
2019-02-16T02:02:39.351Z,9.73
2019-02-16T02:05:08.254Z,11.43
2019-02-16T02:07:36.947Z,10.40
2019-02-16T02:10:06.020Z,9.03
2019-02-16T02:12:34.710Z,10.63
2019-02-16T02:15:03.311Z,9.77
2019-02-16T02:17:32.055Z,10.40
2019-02-16T02:20:00.664Z,8.03
2019-02-16T02:22:29.238Z,9.63
2019-02-16T02:24:57.854Z,11.20
2019-02-16T02:27:26.447Z,9.80
2019-02-16T02:29:55.079Z,8.83
2019-02-16T02:32:23.669Z,8.37
2019-02-16T02:34:52.291Z,10.33
2019-02-16T02:37:21.255Z,9.07
2019-02-16T02:39:49.885Z,8.87
2019-02-16T02:42:18.486Z,8.00
2019-02-16T02:44:47.067Z,8.43
2019-02-16T02:47:15.672Z,8.23
2019-02-16T02:49:44.269Z,7.43
2019-02-16T02:52:12.853Z,7.13
2019-02-16T02:54:41.633Z,9.10
2019-02-16T02:57:10.224Z,8.80
2019-02-16T02:59:38.831Z,7.70
2019-02-16T03:02:07.450Z,8.00
2019-02-16T03:04:36.041Z,8.27
2019-02-16T03:07:04.705Z,8.97
2019-02-16T03:09:33.322Z,7.60
2019-02-16T03:12:01.915Z,7.90
2019-02-16T03:14:30.653Z,9.73
2019-02-16T03:16:59.340Z,7.80
2019-02-16T03:19:27.980Z,7.57
2019-02-16T03:22:02.625Z,8.33
2019-02-16T03:24:26.868Z,9.97
2019-02-16T03:27:06.967Z,8.07
2019-02-16T03:29:54.648Z,7.83
2019-02-16T03:32:42.924Z,8.00
2019-02-16T03:35:45.559Z,7.27
2019-02-16T03:38:33.226Z,8.83
2019-02-16T03:41:01.848Z,7.43
2019-02-16T03:43:30.438Z,7.93
2019-02-16T03:45:59.120Z,9.00
2019-02-16T03:48:27.726Z,9.57
2019-02-16T03:50:56.317Z,9.47
2019-02-16T03:53:24.907Z,8.07
2019-02-16T03:55:53.517Z,8.50
2019-02-16T03:58:22.160Z,9.97
2019-02-16T04:00:50.756Z,8.33
2019-02-16T04:03:19.369Z,8.80
2019-02-16T04:05:47.972Z,7.83
2019-02-16T04:08:16.571Z,7.80
2019-02-16T04:10:45.189Z,9.17
2019-02-16T04:13:13.777Z,6.83
2019-02-16T04:15:42.372Z,7.90
2019-02-16T04:18:11.120Z,6.97
2019-02-16T04:20:39.799Z,6.23
2019-02-16T04:23:08.413Z,6.50
2019-02-16T04:25:37.009Z,6.63
2019-02-16T04:28:05.666Z,6.67
2019-02-16T04:30:34.348Z,7.07
2019-02-16T04:33:03.173Z,6.97
2019-02-16T04:35:31.766Z,7.43
2019-02-16T04:38:00.362Z,6.90
2019-02-16T04:40:28.952Z,7.00
2019-02-16T04:42:57.548Z,7.87
2019-02-16T04:45:26.163Z,6.00
2019-02-16T04:47:54.757Z,6.30
2019-02-16T04:50:23.353Z,7.10
2019-02-16T04:52:52.060Z,6.17
2019-02-16T04:55:20.638Z,6.43
2019-02-16T04:57:49.244Z,6.83
2019-02-16T05:00:17.913Z,6.83
2019-02-16T05:02:46.508Z,6.63
2019-02-16T05:05:15.105Z,7.90
2019-02-16T05:07:43.725Z,6.67
2019-02-16T05:10:12.324Z,6.67
2019-02-16T05:12:40.961Z,7.07
2019-02-16T05:15:09.628Z,7.03
2019-02-16T05:17:38.305Z,8.87
2019-02-16T05:20:06.892Z,7.27
2019-02-16T05:22:44.246Z,7.47
2019-02-16T05:25:06.119Z,6.80
2019-02-16T05:27:34.722Z,9.50
2019-02-16T05:30:03.372Z,7.73
2019-02-16T05:32:31.952Z,7.10
2019-02-16T05:35:00.617Z,6.10
2019-02-16T05:37:30.515Z,6.17
2019-02-16T05:39:59.317Z,6.37
2019-02-16T05:42:27.904Z,6.90
2019-02-16T05:44:56.535Z,6.90
2019-02-16T05:47:25.201Z,5.80
2019-02-16T05:49:53.795Z,5.70
2019-02-16T05:52:22.475Z,6.80
2019-02-16T05:54:51.056Z,5.77
2019-02-16T05:57:19.658Z,6.93
2019-02-16T05:59:48.321Z,5.37
2019-02-16T06:02:17.024Z,6.10
2019-02-16T06:04:45.632Z,6.47
2019-02-16T06:07:14.231Z,5.63
2019-02-16T06:09:42.841Z,5.43
2019-02-16T06:12:11.511Z,5.87
2019-02-16T06:14:40.205Z,5.63
2019-02-16T06:17:08.797Z,5.70
2019-02-16T06:19:37.520Z,7.50
2019-02-16T06:22:06.145Z,5.80
2019-02-16T06:24:34.788Z,5.30
2019-02-16T06:27:03.430Z,5.07
2019-02-16T06:29:32.043Z,5.67
2019-02-16T06:32:00.635Z,6.40
2019-02-16T06:34:29.225Z,5.07
2019-02-16T06:36:57.851Z,5.30
2019-02-16T06:39:26.448Z,5.40
2019-02-16T06:41:55.055Z,5.10
2019-02-16T06:44:23.643Z,5.17
2019-02-16T06:46:52.225Z,6.00
2019-02-16T06:49:20.813Z,5.33
2019-02-16T06:51:49.437Z,5.07
2019-02-16T06:54:18.035Z,5.73
2019-02-16T06:57:17.861Z,5.30
2019-02-16T06:59:46.456Z,5.27
2019-02-16T07:02:15.057Z,5.90
2019-02-16T07:04:43.707Z,5.97
2019-02-16T07:07:12.307Z,4.80
2019-02-16T07:09:40.881Z,4.93
2019-02-16T07:12:09.494Z,5.07
2019-02-16T07:14:38.100Z,6.83
2019-02-16T07:17:23.083Z,6.13
2019-02-16T07:19:54.125Z,6.53
2019-02-16T07:22:22.738Z,5.30
2019-02-16T07:24:51.356Z,5.83
2019-02-16T07:27:19.957Z,5.87
2019-02-16T07:29:48.552Z,5.63
2019-02-16T07:32:17.179Z,6.10
2019-02-16T07:34:45.779Z,8.03
2019-02-16T07:37:14.381Z,5.80
2019-02-16T07:39:42.988Z,7.43
2019-02-16T07:42:11.583Z,5.43
2019-02-16T07:44:51.140Z,6.10
2019-02-16T07:47:37.076Z,7.90
2019-02-16T07:50:23.103Z,6.53
2019-02-16T07:53:05.620Z,5.07
2019-02-16T07:55:49.973Z,5.37
2019-02-16T07:58:37.571Z,4.90
2019-02-16T08:01:30.967Z,4.70
2019-02-16T08:04:21.579Z,4.43
2019-02-16T08:07:10.815Z,4.83
2019-02-16T08:09:57.409Z,4.60
2019-02-16T08:12:47.843Z,4.17
2019-02-16T08:15:43.419Z,4.60
2019-02-16T08:18:29.491Z,4.20
2019-02-16T08:21:06.407Z,4.57
2019-02-16T08:24:00.199Z,4.70
2019-02-16T08:26:46.221Z,5.20
2019-02-16T08:29:21.027Z,4.73
2019-02-16T08:32:10.811Z,4.90
2019-02-16T08:34:53.245Z,4.77
2019-02-16T08:37:49.804Z,4.43
2019-02-16T08:40:25.312Z,4.33
2019-02-16T08:43:28.060Z,5.10
2019-02-16T08:46:13.026Z,3.80
2019-02-16T08:49:12.755Z,5.13
2019-02-16T08:52:00.855Z,4.10
2019-02-16T08:54:40.138Z,4.20
2019-02-16T08:57:35.041Z,4.20
2019-02-16T09:00:23.746Z,4.13
2019-02-16T09:02:58.046Z,3.70
2019-02-16T09:05:34.802Z,3.93
2019-02-16T09:08:25.231Z,4.53
2019-02-16T09:11:11.256Z,4.03
2019-02-16T09:13:51.824Z,3.50
2019-02-16T09:16:39.423Z,3.70
2019-02-16T09:19:35.680Z,3.97
2019-02-16T09:22:17.788Z,3.63
2019-02-16T09:25:05.572Z,3.00
2019-02-16T09:27:50.915Z,3.73
2019-02-16T09:30:47.496Z,5.10
2019-02-16T09:33:25.782Z,3.03
2019-02-16T09:36:13.400Z,3.33
2019-02-16T09:39:01.007Z,3.53
2019-02-16T09:41:51.363Z,3.50
2019-02-16T09:44:37.554Z,3.20
2019-02-16T09:47:30.896Z,3.93
2019-02-16T09:50:07.274Z,5.03
2019-02-16T09:52:57.494Z,5.20
2019-02-16T09:55:38.808Z,4.63
2019-02-16T09:58:35.078Z,6.07
2019-02-16T10:01:28.548Z,6.73
2019-02-16T10:04:14.537Z,8.03
2019-02-16T10:06:53.747Z,8.40
2019-02-16T10:09:47.182Z,8.87
2019-02-16T10:12:37.406Z,9.33
2019-02-16T10:15:25.590Z,6.13
2019-02-16T10:18:15.531Z,7.83
2019-02-16T10:21:12.356Z,6.73
2019-02-16T10:23:59.975Z,7.93
2019-02-16T10:26:59.808Z,9.33
2019-02-16T10:29:50.452Z,9.80
2019-02-16T10:32:30.424Z,8.03
2019-02-16T10:35:23.849Z,10.03
2019-02-16T10:38:05.032Z,8.43
2019-02-16T10:40:51.128Z,8.67
2019-02-16T10:43:34.074Z,9.73
2019-02-16T10:46:26.859Z,8.53
2019-02-16T10:49:12.896Z,13.17
2019-02-16T10:51:51.820Z,9.27
2019-02-16T10:54:57.672Z,9.63
2019-02-16T10:57:43.812Z,9.63
2019-02-16T11:00:21.072Z,9.97
2019-02-16T11:03:04.158Z,9.33
2019-02-16T11:05:38.610Z,8.40
2019-02-16T11:08:26.222Z,8.90
2019-02-16T11:11:13.856Z,8.83
2019-02-16T11:13:49.327Z,7.97
2019-02-16T11:16:33.018Z,7.77
2019-02-16T11:19:12.695Z,9.47
2019-02-16T11:22:00.329Z,7.80
2019-02-16T11:24:50.758Z,9.17
2019-02-16T11:27:32.599Z,9.07
2019-02-16T11:30:20.230Z,8.77
2019-02-16T11:33:02.752Z,8.93
2019-02-16T11:35:49.045Z,9.37
2019-02-16T11:38:35.302Z,10.23
2019-02-16T11:41:37.884Z,9.90
2019-02-16T11:44:28.222Z,8.73
2019-02-16T11:47:34.104Z,8.57
2019-02-16T11:50:27.823Z,8.43
2019-02-16T11:53:30.722Z,10.87
2019-02-16T11:56:12.084Z,9.20
2019-02-16T11:58:59.696Z,10.03
2019-02-16T12:01:53.437Z,8.13
2019-02-16T12:04:53.260Z,9.13
2019-02-16T12:07:40.887Z,8.83
2019-02-16T12:10:27.168Z,8.53
2019-02-16T12:13:14.790Z,10.00
2019-02-16T12:15:59.977Z,7.60
2019-02-16T12:18:46.320Z,9.13
2019-02-16T12:21:32.254Z,10.00
2019-02-16T12:24:20.022Z,9.07
2019-02-16T12:27:05.923Z,8.27
2019-02-16T12:29:48.784Z,9.43
2019-02-16T12:32:25.215Z,9.20
2019-02-16T12:35:09.278Z,9.73
2019-02-16T12:37:56.888Z,11.07
2019-02-16T12:40:33.271Z,8.40
2019-02-16T12:43:18.640Z,9.63
2019-02-16T12:45:52.804Z,9.13
2019-02-16T12:48:36.412Z,8.20
2019-02-16T12:51:29.905Z,9.00
2019-02-16T12:54:25.664Z,9.10
2019-02-16T12:57:13.276Z,6.73
2019-02-16T13:00:15.600Z,8.67
2019-02-16T13:03:00.360Z,9.33
2019-02-16T13:05:48.027Z,9.83
2019-02-16T13:08:26.454Z,9.57
2019-02-16T13:11:10.417Z,8.43
2019-02-16T13:13:54.506Z,9.97
2019-02-16T13:16:42.114Z,8.90
2019-02-16T13:19:29.324Z,12.17
2019-02-16T13:22:22.657Z,9.23
2019-02-16T13:25:24.064Z,10.23
2019-02-16T13:27:56.170Z,10.73
2019-02-16T13:30:39.528Z,7.57
2019-02-16T13:33:18.703Z,8.80
2019-02-16T13:36:04.681Z,7.47
2019-02-16T13:39:01.210Z,6.37
2019-02-16T13:41:36.123Z,8.37
2019-02-16T13:44:14.651Z,7.67
2019-02-16T13:47:04.983Z,5.80
2019-02-16T13:50:10.770Z,7.83
2019-02-16T13:52:56.491Z,6.00
2019-02-16T13:55:49.047Z,7.27
2019-02-16T13:58:39.713Z,8.00
2019-02-16T14:01:23.991Z,6.90
2019-02-16T14:04:02.679Z,6.87
2019-02-16T14:06:56.411Z,8.17
2019-02-16T14:09:42.452Z,7.07
2019-02-16T14:12:28.710Z,7.50
2019-02-16T14:15:22.364Z,8.27
2019-02-16T14:17:51.675Z,6.87
2019-02-16T14:20:20.369Z,8.93
2019-02-16T14:22:48.986Z,9.10
2019-02-16T14:25:25.707Z,8.23
2019-02-16T14:27:54.334Z,11.00
2019-02-16T14:30:22.979Z,6.83
2019-02-16T14:32:51.744Z,7.27
2019-02-16T14:35:20.373Z,8.73
2019-02-16T14:37:53.641Z,7.60
2019-02-16T14:40:24.071Z,6.27
2019-02-16T14:42:52.667Z,5.80
2019-02-16T14:45:21.259Z,6.30
2019-02-16T14:47:49.867Z,5.37
2019-02-16T14:50:18.463Z,8.20
2019-02-16T14:52:47.053Z,6.27
2019-02-16T14:55:15.663Z,5.67
2019-02-16T14:57:44.260Z,5.47
2019-02-16T15:00:13.165Z,5.03
2019-02-16T15:02:41.787Z,5.33
2019-02-16T15:05:10.423Z,6.97
2019-02-16T15:07:39.004Z,4.93
2019-02-16T15:10:08.047Z,3.70
2019-02-16T15:12:36.719Z,4.83
2019-02-16T15:15:05.549Z,3.93
2019-02-16T15:17:34.162Z,4.70
2019-02-16T15:20:02.756Z,4.70
2019-02-16T15:22:31.381Z,3.83
2019-02-16T15:24:59.981Z,3.47
2019-02-16T15:27:28.575Z,4.17
2019-02-16T15:29:57.171Z,4.50
2019-02-16T15:32:25.755Z,5.27
2019-02-16T15:34:54.358Z,4.27
2019-02-16T15:37:23.003Z,4.13
2019-02-16T15:39:51.609Z,5.73
2019-02-16T15:42:20.201Z,4.73
2019-02-16T15:44:48.857Z,4.93
2019-02-16T15:47:17.455Z,5.33
2019-02-16T15:49:46.037Z,4.77
2019-02-16T15:52:14.699Z,5.63
2019-02-16T15:54:43.301Z,5.67
2019-02-16T15:57:11.882Z,6.60
2019-02-16T15:59:40.491Z,5.73
2019-02-16T16:02:09.135Z,8.00
2019-02-16T16:04:37.734Z,7.60
2019-02-16T16:07:11.194Z,8.90
2019-02-16T16:09:57.233Z,6.37
2019-02-16T16:12:47.091Z,9.77
2019-02-16T16:15:29.316Z,9.77
2019-02-16T16:18:14.305Z,8.87
2019-02-16T16:20:55.545Z,10.90
2019-02-16T16:23:36.916Z,8.80
2019-02-16T16:26:19.293Z,9.33
2019-02-16T16:29:10.003Z,10.20
2019-02-16T16:32:00.200Z,9.83
2019-02-16T16:34:42.028Z,8.30
2019-02-16T16:37:32.407Z,8.13
2019-02-16T16:40:35.152Z,9.70
2019-02-16T16:43:18.824Z,8.87
2019-02-16T16:46:09.319Z,8.67
2019-02-16T16:49:11.811Z,9.53
2019-02-16T16:52:11.128Z,9.47
2019-02-16T16:55:01.668Z,9.53
2019-02-16T16:57:42.727Z,10.83
2019-02-16T17:00:28.143Z,9.93
2019-02-16T17:03:27.527Z,9.50
2019-02-16T17:06:13.361Z,9.43
2019-02-16T17:09:10.106Z,9.87
2019-02-16T17:11:56.349Z,11.03
2019-02-16T17:14:52.768Z,10.40
2019-02-16T17:17:28.171Z,9.23
2019-02-16T17:20:18.852Z,9.80
2019-02-16T17:23:04.782Z,9.60
2019-02-16T17:25:52.433Z,10.30
2019-02-16T17:28:42.236Z,10.43
2019-02-16T17:31:29.833Z,9.17
2019-02-16T17:34:18.576Z,8.97
2019-02-16T17:37:04.545Z,8.43
2019-02-16T17:40:04.095Z,10.10
2019-02-16T17:42:54.759Z,11.27
2019-02-16T17:45:57.508Z,10.17
2019-02-16T17:48:56.932Z,8.10
2019-02-16T17:51:36.910Z,9.13
2019-02-16T17:54:24.530Z,11.10
2019-02-16T17:57:08.269Z,9.30
2019-02-16T18:00:02.189Z,8.53
2019-02-16T18:02:55.608Z,9.87
2019-02-16T18:05:41.889Z,9.70
2019-02-16T18:08:28.220Z,10.70
2019-02-16T18:11:07.478Z,9.53
2019-02-16T18:13:57.906Z,9.20
2019-02-16T18:16:32.359Z,9.50
2019-02-16T18:19:18.106Z,9.70
2019-02-16T18:22:10.518Z,11.00
2019-02-16T18:25:00.515Z,9.80
2019-02-16T18:27:46.907Z,10.73
2019-02-16T18:30:32.790Z,9.43
2019-02-16T18:33:10.797Z,10.23
2019-02-16T18:35:54.137Z,10.10
2019-02-16T18:38:56.711Z,10.00
2019-02-16T18:41:56.583Z,10.17
2019-02-16T18:44:44.269Z,10.07
2019-02-16T18:47:23.926Z,14.17
2019-02-16T18:50:09.977Z,12.30
2019-02-16T18:53:00.622Z,10.07
2019-02-16T18:55:39.954Z,10.97
2019-02-16T18:58:36.737Z,12.90
2019-02-16T19:01:18.694Z,10.90
2019-02-16T19:04:09.337Z,11.87
2019-02-16T19:06:52.120Z,10.67
2019-02-16T19:09:38.116Z,11.23
2019-02-16T19:12:16.172Z,10.73
2019-02-16T19:15:00.416Z,10.87
2019-02-16T19:17:42.910Z,10.60
2019-02-16T19:20:21.261Z,11.83
2019-02-16T19:23:08.162Z,10.20
2019-02-16T19:26:01.450Z,11.43
2019-02-16T19:28:58.091Z,9.10
2019-02-16T19:31:42.130Z,10.37
2019-02-16T19:34:36.607Z,12.23
2019-02-16T19:37:12.039Z,10.73
2019-02-16T19:39:59.199Z,13.67
2019-02-16T19:42:36.175Z,11.37
2019-02-16T19:45:23.893Z,12.93
2019-02-16T19:48:09.918Z,12.87
2019-02-16T19:50:54.750Z,11.57
2019-02-16T19:53:42.348Z,12.10
2019-02-16T19:56:17.825Z,12.13
2019-02-16T19:59:06.608Z,12.87
2019-02-16T20:01:52.300Z,11.20
2019-02-16T20:04:36.210Z,12.87
2019-02-16T20:07:41.818Z,10.50
2019-02-16T20:10:21.505Z,12.20
2019-02-16T20:13:14.878Z,12.03
2019-02-16T20:16:11.154Z,11.00
2019-02-16T20:18:52.482Z,12.37
2019-02-16T20:21:48.624Z,11.07
2019-02-16T20:24:36.227Z,10.90
2019-02-16T20:27:38.771Z,11.80
2019-02-16T20:30:32.128Z,11.23
2019-02-16T20:33:13.012Z,9.87
2019-02-16T20:36:00.548Z,10.13
2019-02-16T20:38:45.163Z,9.30
2019-02-16T20:41:38.674Z,9.83
2019-02-16T20:44:16.304Z,10.03
2019-02-16T20:47:10.026Z,10.73
2019-02-16T20:50:02.908Z,10.23
2019-02-16T20:52:59.616Z,10.80
2019-02-16T20:56:02.088Z,11.30
2019-02-16T20:59:01.557Z,11.87
2019-02-16T21:01:41.984Z,11.13
2019-02-16T21:04:27.972Z,11.67
2019-02-16T21:07:18.174Z,10.93
2019-02-16T21:10:20.896Z,10.43
2019-02-16T21:12:59.947Z,11.80
2019-02-16T21:15:56.256Z,11.77
2019-02-16T21:18:52.436Z,13.37
2019-02-16T21:21:42.567Z,16.20
2019-02-16T21:24:36.150Z,17.33
2019-02-16T21:27:26.286Z,15.90
2019-02-16T21:30:19.573Z,17.60
2019-02-16T21:32:54.365Z,11.90
2019-02-16T21:35:35.996Z,10.97
2019-02-16T21:38:14.756Z,10.47
2019-02-16T21:41:02.373Z,10.17
2019-02-16T21:43:41.359Z,10.30
2019-02-16T21:46:20.637Z,10.50
2019-02-16T21:49:05.295Z,11.23
2019-02-16T21:51:53.137Z,12.70
2019-02-16T21:54:49.614Z,11.73
2019-02-16T21:57:37.253Z,12.53
2019-02-16T22:00:23.280Z,13.90
2019-02-16T22:03:02.164Z,16.40
2019-02-16T22:05:52.649Z,15.53
2019-02-16T22:08:40.074Z,15.93
2019-02-16T22:11:45.937Z,16.80
2019-02-16T22:14:14.546Z,14.73
2019-02-16T22:16:43.146Z,16.53
2019-02-16T22:19:11.762Z,17.40
2019-02-16T22:21:40.363Z,16.50
2019-02-16T22:24:08.994Z,18.87
2019-02-16T22:26:37.606Z,17.30
2019-02-16T22:29:06.207Z,15.93
2019-02-16T22:31:34.796Z,15.63
2019-02-16T22:34:03.427Z,13.97
2019-02-16T22:36:32.029Z,15.40
2019-02-16T22:39:00.652Z,16.27
2019-02-16T22:41:29.281Z,13.67
2019-02-16T22:43:57.899Z,13.27
2019-02-16T22:46:26.520Z,14.50
2019-02-16T22:48:55.151Z,11.77
2019-02-16T22:51:23.746Z,9.47
2019-02-16T22:53:52.355Z,10.53
2019-02-16T22:56:21.021Z,10.43
2019-02-16T22:58:49.611Z,9.23
2019-02-16T23:01:21.301Z,10.73
2019-02-16T23:03:49.933Z,11.33
2019-02-16T23:06:18.515Z,9.87
2019-02-16T23:08:47.123Z,10.67
2019-02-16T23:11:15.745Z,9.20
2019-02-16T23:13:44.333Z,9.03
2019-02-16T23:16:12.923Z,9.23
2019-02-16T23:18:41.527Z,9.30
2019-02-16T23:21:10.115Z,7.77
2019-02-16T23:23:38.714Z,9.10
2019-02-16T23:26:07.322Z,8.87
2019-02-16T23:28:38.798Z,7.90
2019-02-16T23:31:06.319Z,9.93
2019-02-16T23:33:34.938Z,9.23
2019-02-16T23:36:03.577Z,9.83
2019-02-16T23:38:32.236Z,9.40
2019-02-16T23:41:00.946Z,10.57
2019-02-16T23:43:29.533Z,10.20
2019-02-16T23:45:58.119Z,9.40
2019-02-16T23:48:26.736Z,9.50
2019-02-16T23:50:55.355Z,7.47
2019-02-16T23:53:23.989Z,9.37
2019-02-16T23:55:52.594Z,10.27
2019-02-16T23:58:21.191Z,8.47
